sensor_id;sensor_type;location;lat;lon;timestamp;pressure;altitude;pressure_sealevel;temperature;humidity
35676;BME280;21790;42.668;23.298;2023-04-16T00:08:21;94134.06;;;18.73;35.47
35676;BME280;21790;42.668;23.298;2023-04-16T01:18:24;94145.81;;;17.39;35.91
35676;BME280;21790;42.668;23.298;2023-04-16T02:04:48;94124.03;;;16.96;38.45
35676;BME280;21790;42.668;23.298;2023-04-16T02:07:14;94124.81;;;16.91;38.07
35676;BME280;21790;42.668;23.298;2023-04-16T02:43:18;94112.81;;;16.55;38.14
35676;BME280;21790;42.668;23.298;2023-04-16T03:47:48;94131.38;;;16.42;38.30
35676;BME280;21790;42.668;23.298;2023-04-16T03:55:40;94132.72;;;16.24;39.19
35676;BME280;21790;42.668;23.298;2023-04-16T03:58:06;94135.00;;;16.25;39.23
35676;BME280;21790;42.668;23.298;2023-04-16T04:03:26;94125.91;;;16.14;39.52
35676;BME280;21790;42.668;23.298;2023-04-16T04:05:52;94135.22;;;16.33;38.86
35676;BME280;21790;42.668;23.298;2023-04-16T04:08:18;94137.72;;;16.37;38.81
35676;BME280;21790;42.668;23.298;2023-04-16T04:10:43;94138.94;;;16.52;38.84
35676;BME280;21790;42.668;23.298;2023-04-16T04:13:10;94146.72;;;16.76;38.04
35676;BME280;21790;42.668;23.298;2023-04-16T04:15:35;94146.19;;;16.83;38.00
35676;BME280;21790;42.668;23.298;2023-04-16T04:23:05;94154.63;;;16.66;38.83
35676;BME280;21790;42.668;23.298;2023-04-16T04:25:31;94155.38;;;16.67;38.76
35676;BME280;21790;42.668;23.298;2023-04-16T04:27:57;94158.53;;;16.93;38.46
35676;BME280;21790;42.668;23.298;2023-04-16T04:30:22;94152.16;;;16.98;38.98
35676;BME280;21790;42.668;23.298;2023-04-16T04:33:06;94163.44;;;16.76;38.57
35676;BME280;21790;42.668;23.298;2023-04-16T04:38:34;94161.50;;;16.60;38.92
35676;BME280;21790;42.668;23.298;2023-04-16T04:41:00;94171.88;;;16.65;38.45
35676;BME280;21790;42.668;23.298;2023-04-16T04:43:25;94169.75;;;16.88;38.39
35676;BME280;21790;42.668;23.298;2023-04-16T04:45:51;94164.38;;;16.95;38.25
35676;BME280;21790;42.668;23.298;2023-04-16T04:48:17;94172.19;;;17.02;37.95
35676;BME280;21790;42.668;23.298;2023-04-16T04:50:43;94170.16;;;17.03;37.40
35676;BME280;21790;42.668;23.298;2023-04-16T04:53:09;94172.38;;;17.15;36.79
35676;BME280;21790;42.668;23.298;2023-04-16T04:55:38;94167.84;;;17.12;36.59
35676;BME280;21790;42.668;23.298;2023-04-16T04:58:04;94177.53;;;17.00;37.04
35676;BME280;21790;42.668;23.298;2023-04-16T05:00:30;94169.31;;;17.13;36.65
35676;BME280;21790;42.668;23.298;2023-04-16T05:02:56;94168.34;;;17.11;36.71
35676;BME280;21790;42.668;23.298;2023-04-16T05:05:22;94169.63;;;17.10;37.19
35676;BME280;21790;42.668;23.298;2023-04-16T05:07:48;94180.31;;;17.06;37.24
35676;BME280;21790;42.668;23.298;2023-04-16T05:10:14;94178.50;;;17.08;37.03
35676;BME280;21790;42.668;23.298;2023-04-16T05:12:40;94169.41;;;17.02;37.13
35676;BME280;21790;42.668;23.298;2023-04-16T05:15:06;94172.66;;;17.12;37.27
35676;BME280;21790;42.668;23.298;2023-04-16T05:17:32;94166.28;;;17.17;36.52
35676;BME280;21790;42.668;23.298;2023-04-16T05:19:57;94178.03;;;17.04;36.81
35676;BME280;21790;42.668;23.298;2023-04-16T05:22:23;94172.72;;;17.01;37.32
35676;BME280;21790;42.668;23.298;2023-04-16T05:24:48;94167.06;;;17.12;37.09
35676;BME280;21790;42.668;23.298;2023-04-16T05:27:14;94167.28;;;17.14;36.91
35676;BME280;21790;42.668;23.298;2023-04-16T05:29:40;94161.09;;;17.32;37.07
35676;BME280;21790;42.668;23.298;2023-04-16T05:32:05;94168.41;;;17.35;37.55
35676;BME280;21790;42.668;23.298;2023-04-16T05:34:31;94161.34;;;17.34;36.77
35676;BME280;21790;42.668;23.298;2023-04-16T05:36:56;94161.53;;;17.42;37.12
35676;BME280;21790;42.668;23.298;2023-04-16T05:39:22;94166.34;;;17.41;36.60
35676;BME280;21790;42.668;23.298;2023-04-16T05:41:47;94169.53;;;17.62;36.24
35676;BME280;21790;42.668;23.298;2023-04-16T05:44:13;94163.38;;;17.69;36.33
35676;BME280;21790;42.668;23.298;2023-04-16T05:46:40;94165.81;;;17.78;36.32
35676;BME280;21790;42.668;23.298;2023-04-16T05:49:06;94165.16;;;17.96;35.99
35676;BME280;21790;42.668;23.298;2023-04-16T05:51:31;94168.72;;;17.97;36.21
35676;BME280;21790;42.668;23.298;2023-04-16T05:53:57;94170.88;;;18.10;35.95
35676;BME280;21790;42.668;23.298;2023-04-16T05:56:22;94168.09;;;18.10;36.32
35676;BME280;21790;42.668;23.298;2023-04-16T05:58:49;94165.06;;;18.08;36.05
35676;BME280;21790;42.668;23.298;2023-04-16T06:01:14;94167.84;;;18.08;35.81
35676;BME280;21790;42.668;23.298;2023-04-16T06:03:40;94169.38;;;18.09;35.27
35676;BME280;21790;42.668;23.298;2023-04-16T06:06:05;94168.66;;;18.03;35.28
35676;BME280;21790;42.668;23.298;2023-04-16T06:08:32;94175.63;;;17.90;35.31
35676;BME280;21790;42.668;23.298;2023-04-16T06:10:58;94179.75;;;18.14;35.06
35676;BME280;21790;42.668;23.298;2023-04-16T06:13:24;94168.38;;;18.06;35.41
35676;BME280;21790;42.668;23.298;2023-04-16T06:15:49;94160.63;;;18.18;35.30
35676;BME280;21790;42.668;23.298;2023-04-16T06:18:15;94174.28;;;18.27;35.23
35676;BME280;21790;42.668;23.298;2023-04-16T06:20:41;94176.34;;;18.45;34.55
35676;BME280;21790;42.668;23.298;2023-04-16T06:23:06;94171.69;;;18.53;34.21
35676;BME280;21790;42.668;23.298;2023-04-16T06:25:32;94169.53;;;18.40;34.27
35676;BME280;21790;42.668;23.298;2023-04-16T06:27:58;94168.97;;;18.48;34.18
35676;BME280;21790;42.668;23.298;2023-04-16T06:30:23;94160.25;;;18.51;34.04
35676;BME280;21790;42.668;23.298;2023-04-16T06:32:49;94164.13;;;18.48;34.44
35676;BME280;21790;42.668;23.298;2023-04-16T06:35:14;94159.25;;;18.54;34.45
35676;BME280;21790;42.668;23.298;2023-04-16T06:37:40;94164.16;;;18.67;34.21
35676;BME280;21790;42.668;23.298;2023-04-16T06:40:06;94164.03;;;18.78;34.19
35676;BME280;21790;42.668;23.298;2023-04-16T06:42:32;94158.91;;;19.01;34.54
35676;BME280;21790;42.668;23.298;2023-04-16T06:44:58;94160.44;;;19.02;34.57
35676;BME280;21790;42.668;23.298;2023-04-16T06:47:24;94168.88;;;19.15;33.96
35676;BME280;21790;42.668;23.298;2023-04-16T06:49:51;94162.84;;;19.30;33.83
35676;BME280;21790;42.668;23.298;2023-04-16T06:52:16;94159.06;;;19.46;33.93
35676;BME280;21790;42.668;23.298;2023-04-16T06:54:42;94154.72;;;19.63;33.48
35676;BME280;21790;42.668;23.298;2023-04-16T06:57:08;94155.50;;;19.77;32.64
35676;BME280;21790;42.668;23.298;2023-04-16T06:59:33;94148.50;;;19.84;32.50
35676;BME280;21790;42.668;23.298;2023-04-16T07:01:59;94149.13;;;19.77;32.37
35676;BME280;21790;42.668;23.298;2023-04-16T07:04:24;94157.13;;;19.86;33.04
35676;BME280;21790;42.668;23.298;2023-04-16T07:06:50;94154.03;;;20.02;33.24
35676;BME280;21790;42.668;23.298;2023-04-16T07:09:16;94154.72;;;19.77;34.17
35676;BME280;21790;42.668;23.298;2023-04-16T07:11:44;94163.81;;;19.83;33.47
35676;BME280;21790;42.668;23.298;2023-04-16T07:14:10;94159.84;;;19.91;33.04
35676;BME280;21790;42.668;23.298;2023-04-16T07:16:36;94164.72;;;19.91;32.86
35676;BME280;21790;42.668;23.298;2023-04-16T07:19:01;94160.81;;;19.94;32.50
35676;BME280;21790;42.668;23.298;2023-04-16T07:21:27;94162.53;;;19.97;32.38
35676;BME280;21790;42.668;23.298;2023-04-16T07:23:52;94159.78;;;20.10;32.54
35676;BME280;21790;42.668;23.298;2023-04-16T07:26:18;94170.47;;;20.12;33.07
35676;BME280;21790;42.668;23.298;2023-04-16T07:28:43;94156.78;;;20.21;32.58
35676;BME280;21790;42.668;23.298;2023-04-16T07:31:09;94140.47;;;20.07;33.16
35676;BME280;21790;42.668;23.298;2023-04-16T07:33:35;94157.72;;;20.24;33.13
35676;BME280;21790;42.668;23.298;2023-04-16T07:36:00;94151.59;;;20.25;32.65
35676;BME280;21790;42.668;23.298;2023-04-16T07:38:28;94155.09;;;20.44;33.36
35676;BME280;21790;42.668;23.298;2023-04-16T07:40:54;94158.34;;;20.62;32.69
35676;BME280;21790;42.668;23.298;2023-04-16T07:43:20;94160.91;;;20.60;32.24
35676;BME280;21790;42.668;23.298;2023-04-16T07:45:46;94153.91;;;20.66;33.29
35676;BME280;21790;42.668;23.298;2023-04-16T07:48:12;94157.66;;;20.69;32.70
35676;BME280;21790;42.668;23.298;2023-04-16T07:50:38;94159.81;;;20.23;32.90
35676;BME280;21790;42.668;23.298;2023-04-16T07:53:03;94154.75;;;20.35;32.25
35676;BME280;21790;42.668;23.298;2023-04-16T07:55:31;94153.03;;;20.58;33.07
35676;BME280;21790;42.668;23.298;2023-04-16T07:57:57;94149.69;;;20.73;32.56
35676;BME280;21790;42.668;23.298;2023-04-16T08:00:23;94161.34;;;20.77;32.22
35676;BME280;21790;42.668;23.298;2023-04-16T08:02:49;94158.13;;;20.73;31.54
35676;BME280;21790;42.668;23.298;2023-04-16T08:05:15;94158.09;;;20.86;31.37
35676;BME280;21790;42.668;23.298;2023-04-16T08:07:41;94150.91;;;21.11;32.24
35676;BME280;21790;42.668;23.298;2023-04-16T08:10:09;94157.53;;;21.48;33.32
35676;BME280;21790;42.668;23.298;2023-04-16T08:12:35;94133.66;;;21.41;31.82
35676;BME280;21790;42.668;23.298;2023-04-16T08:15:04;94131.25;;;21.45;32.43
35676;BME280;21790;42.668;23.298;2023-04-16T08:17:30;94128.06;;;21.62;32.50
35676;BME280;21790;42.668;23.298;2023-04-16T08:19:57;94120.47;;;21.70;31.13
35676;BME280;21790;42.668;23.298;2023-04-16T08:22:26;94117.38;;;21.81;31.28
35676;BME280;21790;42.668;23.298;2023-04-16T08:24:52;94124.78;;;21.71;31.14
35676;BME280;21790;42.668;23.298;2023-04-16T08:27:18;94119.59;;;21.07;31.59
35676;BME280;21790;42.668;23.298;2023-04-16T08:29:44;94137.94;;;21.08;32.05
35676;BME280;21790;42.668;23.298;2023-04-16T08:32:10;94107.25;;;21.23;33.06
35676;BME280;21790;42.668;23.298;2023-04-16T08:34:37;94134.91;;;21.53;31.30
35676;BME280;21790;42.668;23.298;2023-04-16T08:37:02;94112.16;;;21.44;31.61
35676;BME280;21790;42.668;23.298;2023-04-16T08:39:31;94116.88;;;21.69;31.02
35676;BME280;21790;42.668;23.298;2023-04-16T08:41:57;94112.91;;;21.65;31.47
35676;BME280;21790;42.668;23.298;2023-04-16T08:44:31;94098.63;;;21.84;30.86
35676;BME280;21790;42.668;23.298;2023-04-16T08:47:02;94103.63;;;21.98;31.01
35676;BME280;21790;42.668;23.298;2023-04-16T08:49:35;94112.22;;;22.14;30.43
35676;BME280;21790;42.668;23.298;2023-04-16T08:52:04;94123.56;;;22.29;30.51
35676;BME280;21790;42.668;23.298;2023-04-16T08:54:42;94109.28;;;22.27;30.81
35676;BME280;21790;42.668;23.298;2023-04-16T08:59:46;94106.09;;;22.23;31.39
35676;BME280;21790;42.668;23.298;2023-04-16T09:02:15;94087.69;;;22.22;31.04
35676;BME280;21790;42.668;23.298;2023-04-16T09:04:42;94086.59;;;22.25;30.38
35676;BME280;21790;42.668;23.298;2023-04-16T09:07:09;94109.41;;;22.42;29.98
35676;BME280;21790;42.668;23.298;2023-04-16T09:09:37;94085.88;;;22.32;29.69
35676;BME280;21790;42.668;23.298;2023-04-16T09:12:04;94081.06;;;22.11;29.50
35676;BME280;21790;42.668;23.298;2023-04-16T09:14:30;94088.53;;;21.88;30.30
35676;BME280;21790;42.668;23.298;2023-04-16T09:16:57;94091.44;;;21.96;32.14
35676;BME280;21790;42.668;23.298;2023-04-16T09:19:25;94096.69;;;22.20;30.96
35676;BME280;21790;42.668;23.298;2023-04-16T09:21:52;94105.75;;;22.05;30.24
35676;BME280;21790;42.668;23.298;2023-04-16T09:24:18;94079.03;;;21.70;30.23
35676;BME280;21790;42.668;23.298;2023-04-16T09:26:45;94086.97;;;21.80;30.81
35676;BME280;21790;42.668;23.298;2023-04-16T09:29:32;94084.63;;;22.12;31.17
35676;BME280;21790;42.668;23.298;2023-04-16T09:32:03;94081.16;;;22.27;29.92
35676;BME280;21790;42.668;23.298;2023-04-16T09:34:31;94106.63;;;22.49;30.00
35676;BME280;21790;42.668;23.298;2023-04-16T09:37:19;94120.44;;;22.68;29.27
35676;BME280;21790;42.668;23.298;2023-04-16T09:40:07;94104.34;;;22.76;29.04
35676;BME280;21790;42.668;23.298;2023-04-16T09:42:35;94101.22;;;22.59;29.79
35676;BME280;21790;42.668;23.298;2023-04-16T09:45:04;94090.78;;;22.67;30.12
35676;BME280;21790;42.668;23.298;2023-04-16T09:47:42;94106.13;;;22.02;29.85
35676;BME280;21790;42.668;23.298;2023-04-16T09:50:09;94091.09;;;21.99;30.60
35676;BME280;21790;42.668;23.298;2023-04-16T09:52:38;94094.22;;;22.17;30.46
35676;BME280;21790;42.668;23.298;2023-04-16T09:55:10;94093.38;;;22.65;30.98
35676;BME280;21790;42.668;23.298;2023-04-16T09:57:37;94089.28;;;22.38;30.77
35676;BME280;21790;42.668;23.298;2023-04-16T10:00:04;94091.41;;;22.45;29.97
35676;BME280;21790;42.668;23.298;2023-04-16T10:02:31;94089.78;;;22.57;29.83
35676;BME280;21790;42.668;23.298;2023-04-16T10:07:35;94052.59;;;22.51;29.99
35676;BME280;21790;42.668;23.298;2023-04-16T10:10:02;94055.16;;;22.41;30.34
35676;BME280;21790;42.668;23.298;2023-04-16T10:12:46;94081.00;;;22.04;30.19
35676;BME280;21790;42.668;23.298;2023-04-16T10:15:12;94047.78;;;21.33;30.70
35676;BME280;21790;42.668;23.298;2023-04-16T10:17:39;94046.59;;;21.69;32.13
35676;BME280;21790;42.668;23.298;2023-04-16T10:20:05;94041.97;;;22.00;30.57
35676;BME280;21790;42.668;23.298;2023-04-16T10:22:31;94055.34;;;22.07;31.22
35676;BME280;21790;42.668;23.298;2023-04-16T10:24:58;94063.09;;;22.22;32.14
35676;BME280;21790;42.668;23.298;2023-04-16T10:27:25;94066.44;;;22.49;30.55
35676;BME280;21790;42.668;23.298;2023-04-16T10:29:51;94052.59;;;22.51;30.96
35676;BME280;21790;42.668;23.298;2023-04-16T10:32:18;94061.00;;;22.79;31.46
35676;BME280;21790;42.668;23.298;2023-04-16T10:34:48;94059.16;;;22.89;31.44
35676;BME280;21790;42.668;23.298;2023-04-16T10:37:14;94053.19;;;23.01;31.02
35676;BME280;21790;42.668;23.298;2023-04-16T10:39:42;94052.25;;;23.06;30.95
35676;BME280;21790;42.668;23.298;2023-04-16T10:42:10;94052.66;;;23.25;29.98
35676;BME280;21790;42.668;23.298;2023-04-16T10:44:36;94059.09;;;23.41;28.79
35676;BME280;21790;42.668;23.298;2023-04-16T10:47:02;94054.44;;;22.84;29.26
35676;BME280;21790;42.668;23.298;2023-04-16T10:49:34;94062.47;;;22.80;29.39
35676;BME280;21790;42.668;23.298;2023-04-16T10:52:06;94047.88;;;22.89;30.75
35676;BME280;21790;42.668;23.298;2023-04-16T10:54:34;94051.75;;;23.30;29.12
35676;BME280;21790;42.668;23.298;2023-04-16T10:57:05;94050.59;;;23.25;29.21
35676;BME280;21790;42.668;23.298;2023-04-16T11:02:11;94038.34;;;22.64;29.78
35676;BME280;21790;42.668;23.298;2023-04-16T11:04:40;94044.91;;;22.95;30.03
35676;BME280;21790;42.668;23.298;2023-04-16T11:07:13;94040.50;;;22.35;29.79
35676;BME280;21790;42.668;23.298;2023-04-16T11:17:50;94026.25;;;23.58;29.08
35676;BME280;21790;42.668;23.298;2023-04-16T11:20:24;94017.97;;;23.53;28.42
35676;BME280;21790;42.668;23.298;2023-04-16T11:22:52;94014.16;;;23.43;29.01
35676;BME280;21790;42.668;23.298;2023-04-16T11:25:23;94017.59;;;23.49;28.99
35676;BME280;21790;42.668;23.298;2023-04-16T11:27:50;94018.16;;;23.47;28.93
35676;BME280;21790;42.668;23.298;2023-04-16T11:30:17;94013.06;;;23.53;28.71
35676;BME280;21790;42.668;23.298;2023-04-16T11:32:44;94011.41;;;23.50;29.18
35676;BME280;21790;42.668;23.298;2023-04-16T11:35:15;94003.31;;;23.62;29.10
35676;BME280;21790;42.668;23.298;2023-04-16T11:37:41;93991.28;;;23.54;28.82
35676;BME280;21790;42.668;23.298;2023-04-16T11:40:08;93994.28;;;23.56;28.68
35676;BME280;21790;42.668;23.298;2023-04-16T11:42:38;93994.09;;;23.54;28.34
35676;BME280;21790;42.668;23.298;2023-04-16T11:45:10;93995.41;;;23.68;28.57
35676;BME280;21790;42.668;23.298;2023-04-16T11:47:50;93994.84;;;23.62;28.62
35676;BME280;21790;42.668;23.298;2023-04-16T11:50:23;93991.97;;;23.24;29.01
35676;BME280;21790;42.668;23.298;2023-04-16T11:52:50;93980.88;;;23.11;28.76
35676;BME280;21790;42.668;23.298;2023-04-16T11:55:17;93982.34;;;23.04;28.91
35676;BME280;21790;42.668;23.298;2023-04-16T11:57:43;93960.69;;;22.76;28.92
35676;BME280;21790;42.668;23.298;2023-04-16T12:00:10;93976.53;;;23.10;29.17
35676;BME280;21790;42.668;23.298;2023-04-16T12:02:53;93970.75;;;23.23;29.25
35676;BME280;21790;42.668;23.298;2023-04-16T12:07:58;93970.31;;;22.88;29.53
35676;BME280;21790;42.668;23.298;2023-04-16T12:10:24;93958.00;;;22.56;29.74
35676;BME280;21790;42.668;23.298;2023-04-16T12:12:50;93967.75;;;22.54;30.36
35676;BME280;21790;42.668;23.298;2023-04-16T12:15:16;93959.28;;;22.03;30.47
35676;BME280;21790;42.668;23.298;2023-04-16T12:17:42;93946.03;;;22.19;30.38
35676;BME280;21790;42.668;23.298;2023-04-16T12:20:09;93944.38;;;22.31;30.48
35676;BME280;21790;42.668;23.298;2023-04-16T12:22:37;93945.78;;;22.09;30.31
35676;BME280;21790;42.668;23.298;2023-04-16T12:25:10;93954.53;;;22.34;30.02
35676;BME280;21790;42.668;23.298;2023-04-16T12:27:44;93941.66;;;21.82;30.24
35676;BME280;21790;42.668;23.298;2023-04-16T12:30:11;93951.97;;;22.08;30.62
35676;BME280;21790;42.668;23.298;2023-04-16T12:32:37;93949.59;;;22.20;30.43
35676;BME280;21790;42.668;23.298;2023-04-16T12:35:03;93942.47;;;22.19;30.53
35676;BME280;21790;42.668;23.298;2023-04-16T12:37:29;93946.38;;;22.16;30.31
35676;BME280;21790;42.668;23.298;2023-04-16T12:39:55;93936.34;;;22.43;30.29
35676;BME280;21790;42.668;23.298;2023-04-16T12:42:21;93937.69;;;22.49;30.20
35676;BME280;21790;42.668;23.298;2023-04-16T12:44:47;93936.34;;;22.35;30.14
35676;BME280;21790;42.668;23.298;2023-04-16T12:47:13;93944.28;;;21.80;30.99
35676;BME280;21790;42.668;23.298;2023-04-16T12:49:39;93925.31;;;22.01;30.80
35676;BME280;21790;42.668;23.298;2023-04-16T12:52:04;93934.94;;;22.14;30.21
35676;BME280;21790;42.668;23.298;2023-04-16T12:54:30;93929.41;;;22.36;30.23
35676;BME280;21790;42.668;23.298;2023-04-16T12:56:56;93937.22;;;22.23;30.70
35676;BME280;21790;42.668;23.298;2023-04-16T12:59:22;93930.78;;;22.07;30.65
35676;BME280;21790;42.668;23.298;2023-04-16T13:01:48;93937.69;;;22.42;30.25
35676;BME280;21790;42.668;23.298;2023-04-16T13:04:13;93933.03;;;22.52;30.42
35676;BME280;21790;42.668;23.298;2023-04-16T13:06:39;93920.03;;;22.49;31.90
35676;BME280;21790;42.668;23.298;2023-04-16T13:09:05;93922.47;;;22.45;31.96
35676;BME280;21790;42.668;23.298;2023-04-16T13:11:31;93917.56;;;22.38;32.06
35676;BME280;21790;42.668;23.298;2023-04-16T13:13:57;93907.09;;;22.53;31.90
35676;BME280;21790;42.668;23.298;2023-04-16T13:16:23;93911.81;;;22.51;32.23
35676;BME280;21790;42.668;23.298;2023-04-16T13:18:48;93903.19;;;22.57;31.39
35676;BME280;21790;42.668;23.298;2023-04-16T13:21:14;93900.19;;;22.62;31.66
35676;BME280;21790;42.668;23.298;2023-04-16T13:23:40;93883.44;;;22.41;32.25
35676;BME280;21790;42.668;23.298;2023-04-16T13:26:09;93883.41;;;22.34;31.88
35676;BME280;21790;42.668;23.298;2023-04-16T13:28:46;93909.91;;;22.53;32.03
35676;BME280;21790;42.668;23.298;2023-04-16T13:31:13;93917.16;;;21.54;34.44
35676;BME280;21790;42.668;23.298;2023-04-16T13:33:40;93929.81;;;21.19;35.59
35676;BME280;21790;42.668;23.298;2023-04-16T13:36:05;93925.41;;;20.35;37.42
35676;BME280;21790;42.668;23.298;2023-04-16T13:38:31;93917.69;;;20.02;37.29
35676;BME280;21790;42.668;23.298;2023-04-16T13:40:56;93926.03;;;19.81;37.82
35676;BME280;21790;42.668;23.298;2023-04-16T13:43:22;93916.00;;;19.20;37.45
35676;BME280;21790;42.668;23.298;2023-04-16T13:45:48;93912.16;;;19.49;38.32
35676;BME280;21790;42.668;23.298;2023-04-16T13:48:14;93897.00;;;19.26;39.30
35676;BME280;21790;42.668;23.298;2023-04-16T13:50:40;93897.38;;;19.49;39.90
35676;BME280;21790;42.668;23.298;2023-04-16T13:55:41;93892.69;;;18.99;40.50
35676;BME280;21790;42.668;23.298;2023-04-16T14:03:32;93921.50;;;18.80;42.27
35676;BME280;21790;42.668;23.298;2023-04-16T14:06:25;93929.88;;;18.49;43.20
35676;BME280;21790;42.668;23.298;2023-04-16T14:14:31;93900.03;;;19.94;41.90
35676;BME280;21790;42.668;23.298;2023-04-16T14:16:57;93930.34;;;20.29;41.44
35676;BME280;21790;42.668;23.298;2023-04-16T14:19:23;93926.81;;;20.42;41.50
35676;BME280;21790;42.668;23.298;2023-04-16T14:21:49;93926.19;;;20.57;40.94
35676;BME280;21790;42.668;23.298;2023-04-16T14:24:15;93916.56;;;20.65;40.84
35676;BME280;21790;42.668;23.298;2023-04-16T14:26:42;93934.44;;;20.75;40.88
35676;BME280;21790;42.668;23.298;2023-04-16T14:29:08;93936.56;;;20.62;41.62
35676;BME280;21790;42.668;23.298;2023-04-16T14:31:33;93944.72;;;20.73;41.31
35676;BME280;21790;42.668;23.298;2023-04-16T14:33:59;93943.63;;;20.76;41.73
35676;BME280;21790;42.668;23.298;2023-04-16T14:36:25;93941.28;;;20.67;40.29
35676;BME280;21790;42.668;23.298;2023-04-16T14:38:52;93947.88;;;20.90;40.41
35676;BME280;21790;42.668;23.298;2023-04-16T14:43:53;93951.69;;;20.79;39.80
35676;BME280;21790;42.668;23.298;2023-04-16T14:51:29;93952.09;;;20.63;39.85
35676;BME280;21790;42.668;23.298;2023-04-16T14:53:56;93966.31;;;20.78;40.00
35676;BME280;21790;42.668;23.298;2023-04-16T14:56:23;93972.53;;;20.84;40.97
35676;BME280;21790;42.668;23.298;2023-04-16T15:03:59;93997.34;;;21.14;40.96
35676;BME280;21790;42.668;23.298;2023-04-16T15:32:05;94006.81;;;19.83;44.61
35676;BME280;21790;42.668;23.298;2023-04-16T15:34:34;94005.41;;;19.89;45.03
35676;BME280;21790;42.668;23.298;2023-04-16T15:37:00;94019.41;;;20.02;44.59
35676;BME280;21790;42.668;23.298;2023-04-16T16:00:07;94037.66;;;20.22;42.88
35676;BME280;21790;42.668;23.298;2023-04-16T16:02:42;94028.59;;;20.16;42.90
35676;BME280;21790;42.668;23.298;2023-04-16T16:40:17;94035.91;;;20.19;44.68
35676;BME280;21790;42.668;23.298;2023-04-16T16:42:43;94038.28;;;20.15;44.34
35676;BME280;21790;42.668;23.298;2023-04-16T16:45:22;94044.88;;;20.31;43.79
35676;BME280;21790;42.668;23.298;2023-04-16T16:53:04;94042.94;;;20.13;42.42
35676;BME280;21790;42.668;23.298;2023-04-16T16:55:31;94037.00;;;19.90;43.99
35676;BME280;21790;42.668;23.298;2023-04-16T17:00:32;94056.63;;;19.90;43.39
35676;BME280;21790;42.668;23.298;2023-04-16T17:02:58;94029.00;;;19.68;44.11
35676;BME280;21790;42.668;23.298;2023-04-16T17:10:38;94044.94;;;19.46;46.09
35676;BME280;21790;42.668;23.298;2023-04-16T17:13:05;94061.66;;;19.65;45.91
35676;BME280;21790;42.668;23.298;2023-04-16T17:15:30;94066.16;;;19.55;47.06
35676;BME280;21790;42.668;23.298;2023-04-16T17:17:56;94068.63;;;19.45;47.68
35676;BME280;21790;42.668;23.298;2023-04-16T17:20:25;94065.66;;;19.38;47.80
35676;BME280;21790;42.668;23.298;2023-04-16T17:22:51;94070.34;;;19.16;48.37
35676;BME280;21790;42.668;23.298;2023-04-16T17:25:17;94067.00;;;19.18;48.44
35676;BME280;21790;42.668;23.298;2023-04-16T17:27:42;94064.88;;;19.24;48.57
35676;BME280;21790;42.668;23.298;2023-04-16T17:35:18;94068.69;;;19.08;47.56
35676;BME280;21790;42.668;23.298;2023-04-16T17:37:44;94070.91;;;18.96;47.73
35676;BME280;21790;42.668;23.298;2023-04-16T17:40:10;94070.59;;;19.00;46.49
35676;BME280;21790;42.668;23.298;2023-04-16T17:42:37;94065.34;;;19.09;46.58
35676;BME280;21790;42.668;23.298;2023-04-16T17:45:03;94061.13;;;19.03;46.24
35676;BME280;21790;42.668;23.298;2023-04-16T17:47:29;94067.34;;;18.96;46.08
35676;BME280;21790;42.668;23.298;2023-04-16T17:49:58;94066.34;;;18.93;46.08
35676;BME280;21790;42.668;23.298;2023-04-16T17:52:24;94071.13;;;18.79;46.29
35676;BME280;21790;42.668;23.298;2023-04-16T17:54:50;94065.75;;;19.00;45.80
35676;BME280;21790;42.668;23.298;2023-04-16T17:57:17;94069.91;;;18.94;45.77
35676;BME280;21790;42.668;23.298;2023-04-16T17:59:43;94074.47;;;18.78;46.04
35676;BME280;21790;42.668;23.298;2023-04-16T18:02:08;94076.59;;;18.91;45.77
35676;BME280;21790;42.668;23.298;2023-04-16T18:04:35;94083.47;;;18.90;45.90
35676;BME280;21790;42.668;23.298;2023-04-16T18:07:02;94074.03;;;18.93;45.62
35676;BME280;21790;42.668;23.298;2023-04-16T18:09:30;94075.50;;;18.94;45.61
35676;BME280;21790;42.668;23.298;2023-04-16T18:11:56;94081.75;;;18.87;45.69
35676;BME280;21790;42.668;23.298;2023-04-16T18:14:23;94081.06;;;18.80;45.87
35676;BME280;21790;42.668;23.298;2023-04-16T18:24:35;94075.81;;;18.71;46.36
35676;BME280;21790;42.668;23.298;2023-04-16T18:32:11;94050.69;;;18.47;46.38
35676;BME280;21790;42.668;23.298;2023-04-16T18:34:42;94099.13;;;18.79;46.51
35676;BME280;21790;42.668;23.298;2023-04-16T18:40:13;94079.00;;;18.62;46.54
35676;BME280;21790;42.668;23.298;2023-04-16T18:42:39;94082.63;;;18.57;46.47
35676;BME280;21790;42.668;23.298;2023-04-16T18:45:05;94072.13;;;18.63;46.48
35676;BME280;21790;42.668;23.298;2023-04-16T18:47:36;94074.84;;;18.88;47.52
35676;BME280;21790;42.668;23.298;2023-04-16T18:50:19;94074.50;;;19.10;46.11
35676;BME280;21790;42.668;23.298;2023-04-16T18:52:45;94080.28;;;18.99;46.47
35676;BME280;21790;42.668;23.298;2023-04-16T18:55:12;94053.81;;;18.81;46.40
35676;BME280;21790;42.668;23.298;2023-04-16T18:57:40;94082.78;;;18.84;46.91
35676;BME280;21790;42.668;23.298;2023-04-16T19:00:06;94068.41;;;18.55;46.76
35676;BME280;21790;42.668;23.298;2023-04-16T19:05:12;94074.69;;;18.61;46.69
35676;BME280;21790;42.668;23.298;2023-04-16T19:07:46;94071.06;;;18.66;46.22
35676;BME280;21790;42.668;23.298;2023-04-16T19:10:12;94055.69;;;18.35;46.82
35676;BME280;21790;42.668;23.298;2023-04-16T19:12:40;94054.78;;;18.46;47.15
35676;BME280;21790;42.668;23.298;2023-04-16T19:15:11;94091.28;;;18.59;47.09
35676;BME280;21790;42.668;23.298;2023-04-16T19:22:49;94064.22;;;18.43;47.02
35676;BME280;21790;42.668;23.298;2023-04-16T19:25:15;94066.13;;;18.54;46.58
35676;BME280;21790;42.668;23.298;2023-04-16T19:27:44;94054.00;;;18.46;46.57
35676;BME280;21790;42.668;23.298;2023-04-16T19:30:13;94082.50;;;18.68;46.67